sensor_id;sensor_type;location;lat;lon;timestamp;P1;durP1;ratioP1;P2;durP2;ratioP2
20114;SDS011;10218;42.874;25.320;2023-12-29T00:02:10;24.27;;;12.60;;
20114;SDS011;10218;42.874;25.320;2023-12-29T00:04:38;22.03;;;9.97;;
20114;SDS011;10218;42.874;25.320;2023-12-29T00:07:06;18.17;;;9.57;;
20114;SDS011;10218;42.874;25.320;2023-12-29T00:09:33;15.07;;;7.93;;
20114;SDS011;10218;42.874;25.320;2023-12-29T00:12:07;18.37;;;10.43;;
20114;SDS011;10218;42.874;25.320;2023-12-29T00:14:40;230.63;;;117.27;;
20114;SDS011;10218;42.874;25.320;2023-12-29T00:17:08;66.87;;;34.10;;
20114;SDS011;10218;42.874;25.320;2023-12-29T00:19:37;19.77;;;10.27;;
20114;SDS011;10218;42.874;25.320;2023-12-29T00:22:04;124.10;;;61.83;;
20114;SDS011;10218;42.874;25.320;2023-12-29T00:24:31;63.27;;;31.93;;
20114;SDS011;10218;42.874;25.320;2023-12-29T00:26:58;37.07;;;19.23;;
20114;SDS011;10218;42.874;25.320;2023-12-29T00:29:27;37.93;;;17.43;;
20114;SDS011;10218;42.874;25.320;2023-12-29T00:32:00;28.23;;;13.13;;
20114;SDS011;10218;42.874;25.320;2023-12-29T00:34:30;22.60;;;12.37;;
20114;SDS011;10218;42.874;25.320;2023-12-29T00:36:59;38.53;;;19.60;;
20114;SDS011;10218;42.874;25.320;2023-12-29T00:39:27;76.27;;;39.33;;
20114;SDS011;10218;42.874;25.320;2023-12-29T00:42:05;27.77;;;13.70;;
20114;SDS011;10218;42.874;25.320;2023-12-29T00:44:33;26.13;;;13.13;;
20114;SDS011;10218;42.874;25.320;2023-12-29T00:47:01;22.37;;;12.17;;
20114;SDS011;10218;42.874;25.320;2023-12-29T00:49:28;25.60;;;13.40;;
20114;SDS011;10218;42.874;25.320;2023-12-29T00:51:57;27.40;;;12.90;;
20114;SDS011;10218;42.874;25.320;2023-12-29T00:54:26;22.13;;;12.13;;
20114;SDS011;10218;42.874;25.320;2023-12-29T00:56:54;24.17;;;12.67;;
20114;SDS011;10218;42.874;25.320;2023-12-29T00:59:22;25.70;;;12.57;;
20114;SDS011;10218;42.874;25.320;2023-12-29T01:01:50;26.90;;;13.17;;
20114;SDS011;10218;42.874;25.320;2023-12-29T01:04:18;26.23;;;12.17;;
20114;SDS011;10218;42.874;25.320;2023-12-29T01:06:47;25.37;;;12.07;;
20114;SDS011;10218;42.874;25.320;2023-12-29T01:09:16;24.20;;;11.70;;
20114;SDS011;10218;42.874;25.320;2023-12-29T01:11:44;20.20;;;10.77;;
20114;SDS011;10218;42.874;25.320;2023-12-29T01:14:13;18.57;;;8.90;;
20114;SDS011;10218;42.874;25.320;2023-12-29T01:16:41;18.33;;;8.17;;
20114;SDS011;10218;42.874;25.320;2023-12-29T01:19:09;24.27;;;9.63;;
20114;SDS011;10218;42.874;25.320;2023-12-29T01:21:38;16.90;;;7.70;;
20114;SDS011;10218;42.874;25.320;2023-12-29T01:24:05;18.23;;;7.80;;
20114;SDS011;10218;42.874;25.320;2023-12-29T01:26:37;14.50;;;7.60;;
20114;SDS011;10218;42.874;25.320;2023-12-29T01:29:06;18.80;;;7.97;;
20114;SDS011;10218;42.874;25.320;2023-12-29T01:31:33;13.20;;;7.33;;
20114;SDS011;10218;42.874;25.320;2023-12-29T01:34:01;17.40;;;9.27;;
20114;SDS011;10218;42.874;25.320;2023-12-29T01:36:29;15.70;;;8.63;;
20114;SDS011;10218;42.874;25.320;2023-12-29T01:38:56;19.87;;;8.80;;
20114;SDS011;10218;42.874;25.320;2023-12-29T01:41:24;13.67;;;7.73;;
20114;SDS011;10218;42.874;25.320;2023-12-29T01:46:25;16.80;;;7.97;;
20114;SDS011;10218;42.874;25.320;2023-12-29T01:48:55;13.93;;;7.30;;
20114;SDS011;10218;42.874;25.320;2023-12-29T01:51:25;15.00;;;7.60;;
20114;SDS011;10218;42.874;25.320;2023-12-29T01:53:54;14.83;;;7.20;;
20114;SDS011;10218;42.874;25.320;2023-12-29T01:56:24;13.70;;;7.20;;
20114;SDS011;10218;42.874;25.320;2023-12-29T01:58:53;11.93;;;6.40;;
20114;SDS011;10218;42.874;25.320;2023-12-29T02:01:24;10.80;;;6.33;;
20114;SDS011;10218;42.874;25.320;2023-12-29T02:03:53;11.13;;;5.93;;
20114;SDS011;10218;42.874;25.320;2023-12-29T02:06:21;12.50;;;6.30;;
20114;SDS011;10218;42.874;25.320;2023-12-29T02:08:50;11.67;;;6.13;;
20114;SDS011;10218;42.874;25.320;2023-12-29T02:11:19;14.30;;;6.13;;
20114;SDS011;10218;42.874;25.320;2023-12-29T02:13:46;11.67;;;6.07;;
20114;SDS011;10218;42.874;25.320;2023-12-29T02:19:01;13.00;;;5.93;;
20114;SDS011;10218;42.874;25.320;2023-12-29T02:21:36;12.73;;;6.60;;
20114;SDS011;10218;42.874;25.320;2023-12-29T02:24:05;12.40;;;6.73;;
20114;SDS011;10218;42.874;25.320;2023-12-29T02:26:32;17.20;;;7.43;;
20114;SDS011;10218;42.874;25.320;2023-12-29T02:29:04;14.10;;;6.90;;
20114;SDS011;10218;42.874;25.320;2023-12-29T02:31:37;13.60;;;7.00;;
20114;SDS011;10218;42.874;25.320;2023-12-29T02:34:08;13.17;;;6.87;;
20114;SDS011;10218;42.874;25.320;2023-12-29T02:36:40;15.33;;;7.07;;
20114;SDS011;10218;42.874;25.320;2023-12-29T02:39:09;12.63;;;5.80;;
20114;SDS011;10218;42.874;25.320;2023-12-29T02:41:38;13.23;;;6.10;;
20114;SDS011;10218;42.874;25.320;2023-12-29T02:44:06;10.63;;;5.67;;
20114;SDS011;10218;42.874;25.320;2023-12-29T02:46:33;15.93;;;6.53;;
20114;SDS011;10218;42.874;25.320;2023-12-29T02:49:00;12.10;;;6.37;;
20114;SDS011;10218;42.874;25.320;2023-12-29T02:51:27;12.77;;;6.03;;
20114;SDS011;10218;42.874;25.320;2023-12-29T02:53:54;13.23;;;6.80;;
20114;SDS011;10218;42.874;25.320;2023-12-29T02:56:21;15.67;;;7.07;;
20114;SDS011;10218;42.874;25.320;2023-12-29T02:58:49;12.20;;;6.10;;
20114;SDS011;10218;42.874;25.320;2023-12-29T03:01:16;15.00;;;7.20;;
20114;SDS011;10218;42.874;25.320;2023-12-29T03:03:44;12.30;;;6.93;;
20114;SDS011;10218;42.874;25.320;2023-12-29T03:06:11;15.23;;;6.93;;
20114;SDS011;10218;42.874;25.320;2023-12-29T03:08:38;14.60;;;6.90;;
20114;SDS011;10218;42.874;25.320;2023-12-29T03:11:05;15.93;;;6.53;;
20114;SDS011;10218;42.874;25.320;2023-12-29T03:13:33;12.47;;;6.30;;
20114;SDS011;10218;42.874;25.320;2023-12-29T03:16:00;14.70;;;6.20;;
20114;SDS011;10218;42.874;25.320;2023-12-29T03:18:30;15.73;;;6.43;;
20114;SDS011;10218;42.874;25.320;2023-12-29T03:20:57;12.40;;;6.57;;
20114;SDS011;10218;42.874;25.320;2023-12-29T03:23:24;16.33;;;7.27;;
20114;SDS011;10218;42.874;25.320;2023-12-29T03:25:51;17.37;;;7.67;;
20114;SDS011;10218;42.874;25.320;2023-12-29T03:28:18;13.90;;;7.10;;
20114;SDS011;10218;42.874;25.320;2023-12-29T03:30:46;17.10;;;7.40;;
20114;SDS011;10218;42.874;25.320;2023-12-29T03:33:15;18.20;;;8.47;;
20114;SDS011;10218;42.874;25.320;2023-12-29T03:35:42;17.90;;;8.47;;
20114;SDS011;10218;42.874;25.320;2023-12-29T03:38:09;19.53;;;9.33;;
20114;SDS011;10218;42.874;25.320;2023-12-29T03:40:36;23.60;;;9.13;;
20114;SDS011;10218;42.874;25.320;2023-12-29T03:43:03;19.97;;;9.10;;
20114;SDS011;10218;42.874;25.320;2023-12-29T03:45:30;18.40;;;9.20;;
20114;SDS011;10218;42.874;25.320;2023-12-29T03:47:57;17.27;;;9.20;;
20114;SDS011;10218;42.874;25.320;2023-12-29T03:50:25;14.93;;;8.57;;
20114;SDS011;10218;42.874;25.320;2023-12-29T03:52:52;19.30;;;8.37;;
20114;SDS011;10218;42.874;25.320;2023-12-29T03:55:20;18.23;;;8.30;;
20114;SDS011;10218;42.874;25.320;2023-12-29T03:57:47;17.67;;;7.90;;
20114;SDS011;10218;42.874;25.320;2023-12-29T04:00:15;15.83;;;7.00;;
20114;SDS011;10218;42.874;25.320;2023-12-29T04:02:42;12.63;;;6.80;;
20114;SDS011;10218;42.874;25.320;2023-12-29T04:05:11;12.37;;;6.87;;
20114;SDS011;10218;42.874;25.320;2023-12-29T04:07:39;11.97;;;6.63;;
20114;SDS011;10218;42.874;25.320;2023-12-29T04:10:07;12.47;;;6.50;;
20114;SDS011;10218;42.874;25.320;2023-12-29T04:12:35;15.83;;;6.60;;
20114;SDS011;10218;42.874;25.320;2023-12-29T04:15:03;15.07;;;8.17;;
20114;SDS011;10218;42.874;25.320;2023-12-29T04:17:31;19.70;;;10.20;;
20114;SDS011;10218;42.874;25.320;2023-12-29T04:19:58;21.60;;;10.13;;
20114;SDS011;10218;42.874;25.320;2023-12-29T04:22:26;17.53;;;9.43;;
20114;SDS011;10218;42.874;25.320;2023-12-29T04:24:53;17.90;;;9.83;;
20114;SDS011;10218;42.874;25.320;2023-12-29T04:27:21;16.53;;;9.40;;
20114;SDS011;10218;42.874;25.320;2023-12-29T04:29:49;19.03;;;9.40;;
20114;SDS011;10218;42.874;25.320;2023-12-29T04:32:16;18.17;;;9.10;;
20114;SDS011;10218;42.874;25.320;2023-12-29T04:34:44;16.33;;;8.27;;
20114;SDS011;10218;42.874;25.320;2023-12-29T04:37:13;15.43;;;7.43;;
20114;SDS011;10218;42.874;25.320;2023-12-29T04:39:42;12.60;;;6.77;;
20114;SDS011;10218;42.874;25.320;2023-12-29T04:42:10;14.57;;;7.27;;
20114;SDS011;10218;42.874;25.320;2023-12-29T04:44:39;17.80;;;7.53;;
20114;SDS011;10218;42.874;25.320;2023-12-29T04:47:06;16.33;;;9.33;;
20114;SDS011;10218;42.874;25.320;2023-12-29T04:49:33;14.20;;;7.70;;
20114;SDS011;10218;42.874;25.320;2023-12-29T04:52:00;16.40;;;8.80;;
20114;SDS011;10218;42.874;25.320;2023-12-29T04:54:28;16.57;;;8.37;;
20114;SDS011;10218;42.874;25.320;2023-12-29T04:56:55;22.03;;;9.70;;
20114;SDS011;10218;42.874;25.320;2023-12-29T04:59:23;26.03;;;11.80;;
20114;SDS011;10218;42.874;25.320;2023-12-29T05:01:51;22.93;;;11.67;;
20114;SDS011;10218;42.874;25.320;2023-12-29T05:04:18;18.20;;;9.23;;
20114;SDS011;10218;42.874;25.320;2023-12-29T05:06:45;17.73;;;9.50;;
20114;SDS011;10218;42.874;25.320;2023-12-29T05:09:13;21.50;;;10.40;;
20114;SDS011;10218;42.874;25.320;2023-12-29T05:11:40;18.90;;;10.93;;
20114;SDS011;10218;42.874;25.320;2023-12-29T05:14:08;23.80;;;13.00;;
20114;SDS011;10218;42.874;25.320;2023-12-29T05:16:35;26.67;;;13.77;;
20114;SDS011;10218;42.874;25.320;2023-12-29T05:19:02;35.80;;;15.40;;
20114;SDS011;10218;42.874;25.320;2023-12-29T05:21:32;26.17;;;13.10;;
20114;SDS011;10218;42.874;25.320;2023-12-29T05:23:59;25.80;;;13.60;;
20114;SDS011;10218;42.874;25.320;2023-12-29T05:26:26;26.03;;;12.90;;
20114;SDS011;10218;42.874;25.320;2023-12-29T05:28:57;24.27;;;11.80;;
20114;SDS011;10218;42.874;25.320;2023-12-29T05:31:24;21.67;;;11.80;;
20114;SDS011;10218;42.874;25.320;2023-12-29T05:33:51;24.50;;;11.37;;
20114;SDS011;10218;42.874;25.320;2023-12-29T05:36:18;22.93;;;11.27;;
20114;SDS011;10218;42.874;25.320;2023-12-29T05:38:46;19.87;;;10.43;;
20114;SDS011;10218;42.874;25.320;2023-12-29T05:41:13;23.33;;;12.10;;
20114;SDS011;10218;42.874;25.320;2023-12-29T05:43:41;27.93;;;12.93;;
20114;SDS011;10218;42.874;25.320;2023-12-29T05:46:09;23.93;;;11.70;;
20114;SDS011;10218;42.874;25.320;2023-12-29T05:48:39;31.00;;;15.17;;
20114;SDS011;10218;42.874;25.320;2023-12-29T05:51:10;30.03;;;14.33;;
20114;SDS011;10218;42.874;25.320;2023-12-29T05:53:40;25.43;;;13.73;;
20114;SDS011;10218;42.874;25.320;2023-12-29T05:56:12;28.40;;;14.67;;
20114;SDS011;10218;42.874;25.320;2023-12-29T05:58:41;23.87;;;12.77;;
20114;SDS011;10218;42.874;25.320;2023-12-29T06:01:09;26.73;;;13.57;;
20114;SDS011;10218;42.874;25.320;2023-12-29T06:03:37;21.07;;;11.70;;
20114;SDS011;10218;42.874;25.320;2023-12-29T06:06:04;27.63;;;14.03;;
20114;SDS011;10218;42.874;25.320;2023-12-29T06:08:32;27.87;;;13.80;;
20114;SDS011;10218;42.874;25.320;2023-12-29T06:10:59;32.93;;;14.60;;
20114;SDS011;10218;42.874;25.320;2023-12-29T06:13:27;24.90;;;13.13;;
20114;SDS011;10218;42.874;25.320;2023-12-29T06:15:54;24.63;;;12.93;;
20114;SDS011;10218;42.874;25.320;2023-12-29T06:18:22;26.00;;;12.83;;
20114;SDS011;10218;42.874;25.320;2023-12-29T06:20:50;25.10;;;12.03;;
20114;SDS011;10218;42.874;25.320;2023-12-29T06:23:17;23.87;;;11.03;;
20114;SDS011;10218;42.874;25.320;2023-12-29T06:25:44;28.97;;;12.53;;
20114;SDS011;10218;42.874;25.320;2023-12-29T06:28:12;25.57;;;12.93;;
20114;SDS011;10218;42.874;25.320;2023-12-29T06:30:39;29.80;;;13.70;;
20114;SDS011;10218;42.874;25.320;2023-12-29T06:33:07;29.13;;;14.83;;
20114;SDS011;10218;42.874;25.320;2023-12-29T06:35:34;27.13;;;14.60;;
20114;SDS011;10218;42.874;25.320;2023-12-29T06:38:01;26.97;;;13.23;;
20114;SDS011;10218;42.874;25.320;2023-12-29T06:40:29;27.37;;;14.83;;
20114;SDS011;10218;42.874;25.320;2023-12-29T06:42:56;28.27;;;14.83;;
20114;SDS011;10218;42.874;25.320;2023-12-29T06:45:23;30.20;;;15.67;;
20114;SDS011;10218;42.874;25.320;2023-12-29T06:47:51;29.60;;;15.50;;
20114;SDS011;10218;42.874;25.320;2023-12-29T06:50:18;33.93;;;15.73;;
20114;SDS011;10218;42.874;25.320;2023-12-29T06:52:45;21.60;;;12.13;;
20114;SDS011;10218;42.874;25.320;2023-12-29T06:55:15;23.63;;;13.50;;
20114;SDS011;10218;42.874;25.320;2023-12-29T06:57:43;27.97;;;16.20;;
20114;SDS011;10218;42.874;25.320;2023-12-29T07:00:10;23.83;;;13.87;;
20114;SDS011;10218;42.874;25.320;2023-12-29T07:02:38;32.87;;;17.10;;
20114;SDS011;10218;42.874;25.320;2023-12-29T07:05:07;42.63;;;19.30;;
20114;SDS011;10218;42.874;25.320;2023-12-29T07:07:37;33.70;;;18.13;;
20114;SDS011;10218;42.874;25.320;2023-12-29T07:10:04;34.80;;;18.90;;
20114;SDS011;10218;42.874;25.320;2023-12-29T07:12:33;35.80;;;19.17;;
20114;SDS011;10218;42.874;25.320;2023-12-29T07:15:01;33.10;;;18.43;;
20114;SDS011;10218;42.874;25.320;2023-12-29T07:17:31;32.57;;;18.30;;
20114;SDS011;10218;42.874;25.320;2023-12-29T07:19:59;31.60;;;18.47;;
20114;SDS011;10218;42.874;25.320;2023-12-29T07:22:27;41.57;;;20.80;;
20114;SDS011;10218;42.874;25.320;2023-12-29T07:24:54;30.47;;;16.67;;
20114;SDS011;10218;42.874;25.320;2023-12-29T07:27:21;40.17;;;21.10;;
20114;SDS011;10218;42.874;25.320;2023-12-29T07:29:48;36.13;;;20.40;;
20114;SDS011;10218;42.874;25.320;2023-12-29T07:32:17;39.77;;;21.70;;
20114;SDS011;10218;42.874;25.320;2023-12-29T07:34:46;39.03;;;19.00;;
20114;SDS011;10218;42.874;25.320;2023-12-29T07:37:13;37.37;;;19.97;;
20114;SDS011;10218;42.874;25.320;2023-12-29T07:39:51;36.43;;;21.67;;
20114;SDS011;10218;42.874;25.320;2023-12-29T07:42:18;45.10;;;23.63;;
20114;SDS011;10218;42.874;25.320;2023-12-29T07:44:46;41.87;;;23.70;;
20114;SDS011;10218;42.874;25.320;2023-12-29T07:47:13;37.57;;;21.90;;
20114;SDS011;10218;42.874;25.320;2023-12-29T07:49:41;37.93;;;22.30;;
20114;SDS011;10218;42.874;25.320;2023-12-29T07:52:09;44.03;;;25.60;;
20114;SDS011;10218;42.874;25.320;2023-12-29T07:54:36;45.93;;;25.60;;
20114;SDS011;10218;42.874;25.320;2023-12-29T07:57:04;50.83;;;27.63;;
20114;SDS011;10218;42.874;25.320;2023-12-29T07:59:31;52.93;;;28.33;;
20114;SDS011;10218;42.874;25.320;2023-12-29T08:01:58;50.10;;;27.90;;
20114;SDS011;10218;42.874;25.320;2023-12-29T08:04:26;41.70;;;22.43;;
20114;SDS011;10218;42.874;25.320;2023-12-29T08:06:53;79.80;;;41.73;;
20114;SDS011;10218;42.874;25.320;2023-12-29T08:09:20;65.03;;;32.93;;
20114;SDS011;10218;42.874;25.320;2023-12-29T08:11:48;68.20;;;38.83;;
20114;SDS011;10218;42.874;25.320;2023-12-29T08:14:16;92.67;;;57.23;;
20114;SDS011;10218;42.874;25.320;2023-12-29T08:16:43;69.23;;;44.50;;
20114;SDS011;10218;42.874;25.320;2023-12-29T08:19:11;59.33;;;35.80;;
20114;SDS011;10218;42.874;25.320;2023-12-29T08:21:39;55.30;;;35.30;;
20114;SDS011;10218;42.874;25.320;2023-12-29T08:24:06;84.10;;;54.77;;
20114;SDS011;10218;42.874;25.320;2023-12-29T08:26:33;91.47;;;60.10;;
20114;SDS011;10218;42.874;25.320;2023-12-29T08:29:00;66.87;;;42.50;;
20114;SDS011;10218;42.874;25.320;2023-12-29T08:31:27;50.60;;;31.53;;
20114;SDS011;10218;42.874;25.320;2023-12-29T08:33:56;53.90;;;31.47;;
20114;SDS011;10218;42.874;25.320;2023-12-29T08:36:23;63.20;;;33.67;;
20114;SDS011;10218;42.874;25.320;2023-12-29T08:38:50;45.20;;;28.17;;
20114;SDS011;10218;42.874;25.320;2023-12-29T08:41:19;44.30;;;28.80;;
20114;SDS011;10218;42.874;25.320;2023-12-29T08:43:46;51.37;;;34.83;;
20114;SDS011;10218;42.874;25.320;2023-12-29T08:46:13;54.70;;;37.77;;
20114;SDS011;10218;42.874;25.320;2023-12-29T08:48:41;49.10;;;32.07;;
20114;SDS011;10218;42.874;25.320;2023-12-29T08:51:08;51.77;;;32.10;;
20114;SDS011;10218;42.874;25.320;2023-12-29T08:53:36;52.67;;;33.30;;
20114;SDS011;10218;42.874;25.320;2023-12-29T08:56:04;48.03;;;29.60;;
20114;SDS011;10218;42.874;25.320;2023-12-29T08:58:31;42.20;;;28.83;;
20114;SDS011;10218;42.874;25.320;2023-12-29T09:00:58;51.73;;;28.37;;
20114;SDS011;10218;42.874;25.320;2023-12-29T09:03:26;59.27;;;31.47;;
20114;SDS011;10218;42.874;25.320;2023-12-29T09:05:53;51.00;;;29.73;;
20114;SDS011;10218;42.874;25.320;2023-12-29T09:08:20;49.87;;;31.43;;
20114;SDS011;10218;42.874;25.320;2023-12-29T09:10:48;52.20;;;38.67;;
20114;SDS011;10218;42.874;25.320;2023-12-29T09:13:15;48.60;;;32.80;;
20114;SDS011;10218;42.874;25.320;2023-12-29T09:15:42;74.83;;;50.07;;
20114;SDS011;10218;42.874;25.320;2023-12-29T09:18:10;45.20;;;32.03;;
20114;SDS011;10218;42.874;25.320;2023-12-29T09:20:37;43.40;;;31.03;;
20114;SDS011;10218;42.874;25.320;2023-12-29T09:23:04;46.10;;;30.90;;
20114;SDS011;10218;42.874;25.320;2023-12-29T09:25:32;45.83;;;29.80;;
20114;SDS011;10218;42.874;25.320;2023-12-29T09:27:59;41.50;;;27.03;;
20114;SDS011;10218;42.874;25.320;2023-12-29T09:30:26;39.13;;;24.47;;
20114;SDS011;10218;42.874;25.320;2023-12-29T09:32:53;34.73;;;25.20;;
20114;SDS011;10218;42.874;25.320;2023-12-29T09:35:21;34.33;;;23.87;;
20114;SDS011;10218;42.874;25.320;2023-12-29T09:37:48;36.07;;;24.30;;
20114;SDS011;10218;42.874;25.320;2023-12-29T09:40:15;33.33;;;23.60;;
20114;SDS011;10218;42.874;25.320;2023-12-29T09:42:43;33.90;;;21.80;;
20114;SDS011;10218;42.874;25.320;2023-12-29T09:45:13;33.30;;;20.30;;
20114;SDS011;10218;42.874;25.320;2023-12-29T09:47:42;34.63;;;18.60;;
20114;SDS011;10218;42.874;25.320;2023-12-29T09:50:11;46.13;;;20.67;;
20114;SDS011;10218;42.874;25.320;2023-12-29T09:52:39;33.47;;;18.13;;
20114;SDS011;10218;42.874;25.320;2023-12-29T09:55:08;33.40;;;17.27;;
20114;SDS011;10218;42.874;25.320;2023-12-29T09:57:39;24.30;;;15.20;;
20114;SDS011;10218;42.874;25.320;2023-12-29T10:00:11;21.90;;;13.47;;
20114;SDS011;10218;42.874;25.320;2023-12-29T10:02:38;20.97;;;10.43;;
20114;SDS011;10218;42.874;25.320;2023-12-29T10:05:06;12.40;;;6.87;;
20114;SDS011;10218;42.874;25.320;2023-12-29T10:07:36;7.10;;;4.97;;
20114;SDS011;10218;42.874;25.320;2023-12-29T10:10:09;7.97;;;5.87;;
20114;SDS011;10218;42.874;25.320;2023-12-29T10:12:43;6.47;;;4.90;;
20114;SDS011;10218;42.874;25.320;2023-12-29T10:15:15;9.67;;;5.60;;
20114;SDS011;10218;42.874;25.320;2023-12-29T10:17:52;7.53;;;5.50;;
20114;SDS011;10218;42.874;25.320;2023-12-29T10:23:23;8.07;;;5.67;;
20114;SDS011;10218;42.874;25.320;2023-12-29T10:26:12;9.27;;;6.00;;
20114;SDS011;10218;42.874;25.320;2023-12-29T10:28:40;16.03;;;11.37;;
20114;SDS011;10218;42.874;25.320;2023-12-29T10:31:09;13.77;;;6.00;;
20114;SDS011;10218;42.874;25.320;2023-12-29T10:33:41;11.77;;;6.03;;
20114;SDS011;10218;42.874;25.320;2023-12-29T10:36:08;8.73;;;5.40;;
20114;SDS011;10218;42.874;25.320;2023-12-29T10:38:38;8.80;;;5.23;;
20114;SDS011;10218;42.874;25.320;2023-12-29T10:43:43;10.93;;;4.97;;
20114;SDS011;10218;42.874;25.320;2023-12-29T10:46:14;11.67;;;5.73;;
20114;SDS011;10218;42.874;25.320;2023-12-29T10:48:41;14.27;;;7.80;;
20114;SDS011;10218;42.874;25.320;2023-12-29T10:51:08;12.07;;;6.47;;
20114;SDS011;10218;42.874;25.320;2023-12-29T10:53:37;9.40;;;5.97;;
20114;SDS011;10218;42.874;25.320;2023-12-29T10:56:09;9.37;;;5.97;;
20114;SDS011;10218;42.874;25.320;2023-12-29T10:58:56;12.07;;;6.77;;
20114;SDS011;10218;42.874;25.320;2023-12-29T11:01:25;9.70;;;6.10;;
20114;SDS011;10218;42.874;25.320;2023-12-29T11:06:29;9.97;;;6.50;;
20114;SDS011;10218;42.874;25.320;2023-12-29T11:09:06;12.50;;;6.30;;
20114;SDS011;10218;42.874;25.320;2023-12-29T11:11:33;7.30;;;5.70;;
20114;SDS011;10218;42.874;25.320;2023-12-29T11:14:02;9.77;;;6.13;;
20114;SDS011;10218;42.874;25.320;2023-12-29T11:16:30;9.83;;;6.40;;
20114;SDS011;10218;42.874;25.320;2023-12-29T11:19:01;13.07;;;6.30;;
20114;SDS011;10218;42.874;25.320;2023-12-29T11:21:30;10.57;;;6.50;;
20114;SDS011;10218;42.874;25.320;2023-12-29T11:23:58;8.10;;;6.30;;
20114;SDS011;10218;42.874;25.320;2023-12-29T11:26:25;12.73;;;7.23;;
20114;SDS011;10218;42.874;25.320;2023-12-29T11:28:54;12.63;;;6.60;;
20114;SDS011;10218;42.874;25.320;2023-12-29T11:31:21;10.17;;;6.37;;
20114;SDS011;10218;42.874;25.320;2023-12-29T11:33:50;10.37;;;6.20;;
20114;SDS011;10218;42.874;25.320;2023-12-29T11:36:27;12.13;;;6.33;;
20114;SDS011;10218;42.874;25.320;2023-12-29T11:39:04;10.13;;;5.90;;
20114;SDS011;10218;42.874;25.320;2023-12-29T11:42:01;10.80;;;6.30;;
20114;SDS011;10218;42.874;25.320;2023-12-29T11:44:33;12.47;;;6.30;;
20114;SDS011;10218;42.874;25.320;2023-12-29T11:47:00;10.73;;;6.80;;
20114;SDS011;10218;42.874;25.320;2023-12-29T11:49:57;8.60;;;6.03;;
20114;SDS011;10218;42.874;25.320;2023-12-29T11:52:33;14.33;;;6.37;;
20114;SDS011;10218;42.874;25.320;2023-12-29T11:55:07;10.17;;;6.13;;
20114;SDS011;10218;42.874;25.320;2023-12-29T11:57:38;11.27;;;6.60;;
20114;SDS011;10218;42.874;25.320;2023-12-29T12:00:07;12.03;;;6.63;;
20114;SDS011;10218;42.874;25.320;2023-12-29T12:02:37;9.60;;;6.60;;
20114;SDS011;10218;42.874;25.320;2023-12-29T12:05:06;16.37;;;12.43;;
20114;SDS011;10218;42.874;25.320;2023-12-29T12:13:00;10.30;;;6.23;;
20114;SDS011;10218;42.874;25.320;2023-12-29T12:18:01;9.23;;;6.43;;
20114;SDS011;10218;42.874;25.320;2023-12-29T12:20:34;9.47;;;5.87;;
20114;SDS011;10218;42.874;25.320;2023-12-29T12:23:09;9.37;;;5.97;;
20114;SDS011;10218;42.874;25.320;2023-12-29T12:25:41;12.33;;;6.03;;
20114;SDS011;10218;42.874;25.320;2023-12-29T12:28:11;9.17;;;6.40;;
20114;SDS011;10218;42.874;25.320;2023-12-29T12:30:42;9.07;;;6.30;;
20114;SDS011;10218;42.874;25.320;2023-12-29T12:33:10;12.80;;;7.27;;
20114;SDS011;10218;42.874;25.320;2023-12-29T12:35:41;26.37;;;22.60;;
20114;SDS011;10218;42.874;25.320;2023-12-29T12:38:09;10.10;;;6.50;;
20114;SDS011;10218;42.874;25.320;2023-12-29T12:40:37;25.20;;;19.00;;
20114;SDS011;10218;42.874;25.320;2023-12-29T12:43:07;11.43;;;8.37;;
20114;SDS011;10218;42.874;25.320;2023-12-29T12:45:41;9.73;;;6.63;;
20114;SDS011;10218;42.874;25.320;2023-12-29T12:48:13;10.23;;;6.50;;
20114;SDS011;10218;42.874;25.320;2023-12-29T12:50:47;11.23;;;6.80;;
20114;SDS011;10218;42.874;25.320;2023-12-29T12:53:16;10.63;;;6.87;;
20114;SDS011;10218;42.874;25.320;2023-12-29T12:55:47;11.23;;;7.17;;
20114;SDS011;10218;42.874;25.320;2023-12-29T12:58:19;13.83;;;9.60;;
20114;SDS011;10218;42.874;25.320;2023-12-29T13:00:49;15.60;;;8.83;;
20114;SDS011;10218;42.874;25.320;2023-12-29T13:03:18;18.80;;;9.80;;
20114;SDS011;10218;42.874;25.320;2023-12-29T13:05:46;15.10;;;10.17;;
20114;SDS011;10218;42.874;25.320;2023-12-29T13:08:13;17.43;;;10.10;;
20114;SDS011;10218;42.874;25.320;2023-12-29T13:10:42;16.80;;;10.23;;
20114;SDS011;10218;42.874;25.320;2023-12-29T13:13:10;14.77;;;9.63;;
20114;SDS011;10218;42.874;25.320;2023-12-29T13:18:27;18.47;;;10.30;;
20114;SDS011;10218;42.874;25.320;2023-12-29T13:20:55;16.20;;;8.43;;
20114;SDS011;10218;42.874;25.320;2023-12-29T13:23:26;17.30;;;9.63;;
20114;SDS011;10218;42.874;25.320;2023-12-29T13:25:54;15.10;;;8.23;;
20114;SDS011;10218;42.874;25.320;2023-12-29T13:28:25;11.97;;;7.37;;
20114;SDS011;10218;42.874;25.320;2023-12-29T13:30:54;16.53;;;9.60;;
20114;SDS011;10218;42.874;25.320;2023-12-29T13:34:06;17.27;;;10.80;;
20114;SDS011;10218;42.874;25.320;2023-12-29T13:38:53;18.57;;;10.10;;
20114;SDS011;10218;42.874;25.320;2023-12-29T13:41:26;13.50;;;7.40;;
20114;SDS011;10218;42.874;25.320;2023-12-29T13:43:56;14.90;;;8.90;;
20114;SDS011;10218;42.874;25.320;2023-12-29T13:46:25;14.37;;;9.03;;
20114;SDS011;10218;42.874;25.320;2023-12-29T13:48:53;11.90;;;7.60;;
20114;SDS011;10218;42.874;25.320;2023-12-29T13:51:24;15.93;;;9.40;;
20114;SDS011;10218;42.874;25.320;2023-12-29T13:53:59;17.30;;;10.77;;
20114;SDS011;10218;42.874;25.320;2023-12-29T13:56:29;15.57;;;9.00;;
20114;SDS011;10218;42.874;25.320;2023-12-29T13:58:57;13.47;;;8.30;;
20114;SDS011;10218;42.874;25.320;2023-12-29T14:01:34;15.37;;;9.50;;
20114;SDS011;10218;42.874;25.320;2023-12-29T14:04:03;19.20;;;9.53;;
20114;SDS011;10218;42.874;25.320;2023-12-29T14:06:40;14.10;;;8.97;;
20114;SDS011;10218;42.874;25.320;2023-12-29T14:09:17;18.40;;;8.83;;
20114;SDS011;10218;42.874;25.320;2023-12-29T14:11:45;14.60;;;8.80;;
20114;SDS011;10218;42.874;25.320;2023-12-29T14:14:13;15.17;;;9.27;;
20114;SDS011;10218;42.874;25.320;2023-12-29T14:16:41;14.57;;;9.03;;
20114;SDS011;10218;42.874;25.320;2023-12-29T14:19:08;22.73;;;10.20;;
20114;SDS011;10218;42.874;25.320;2023-12-29T14:21:36;29.03;;;14.20;;
20114;SDS011;10218;42.874;25.320;2023-12-29T14:24:14;29.33;;;14.73;;
20114;SDS011;10218;42.874;25.320;2023-12-29T14:29:20;32.00;;;19.87;;
20114;SDS011;10218;42.874;25.320;2023-12-29T14:31:47;44.93;;;26.80;;
20114;SDS011;10218;42.874;25.320;2023-12-29T14:34:18;54.43;;;33.10;;
20114;SDS011;10218;42.874;25.320;2023-12-29T14:36:46;62.97;;;36.50;;
20114;SDS011;10218;42.874;25.320;2023-12-29T14:39:13;74.13;;;49.20;;
20114;SDS011;10218;42.874;25.320;2023-12-29T14:41:42;83.63;;;49.90;;
20114;SDS011;10218;42.874;25.320;2023-12-29T14:44:10;81.27;;;47.20;;
20114;SDS011;10218;42.874;25.320;2023-12-29T14:46:38;58.13;;;37.57;;
20114;SDS011;10218;42.874;25.320;2023-12-29T14:49:05;55.20;;;35.67;;
20114;SDS011;10218;42.874;25.320;2023-12-29T14:51:34;48.87;;;29.57;;
20114;SDS011;10218;42.874;25.320;2023-12-29T14:54:01;58.47;;;33.20;;
20114;SDS011;10218;42.874;25.320;2023-12-29T14:56:30;52.47;;;32.03;;